Time;durP1;ratioP1;P1;durP2;ratioP2;P2;SDS_P1;SDS_P2;PMS_P1;PMS_P2;Temp;Humidity;BMP_temperature;BMP_pressure;BME280_temperature;BME280_humidity;BME280_pressure;Samples;Min_cycle;Max_cycle;Signal;HPM_P1;HPM_P2
2024/02/13 00:00:10;;;;;;;;;;;8.70;84.20;;;;;;5016397;28;88488;-66
2024/02/13 00:02:39;;;;;;;;;;;8.60;84.20;;;;;;5016150;28;87022;-66
2024/02/13 00:05:07;;;;;;;;;;;8.60;84.10;;;;;;5016785;28;86847;-67
2024/02/13 00:07:36;;;;;;;;;;;8.60;84.20;;;;;;5013529;28;87303;-67
2024/02/13 00:10:02;;;;;;;;;;;8.60;84.10;;;;;;5014893;28;86962;-67
2024/02/13 00:12:28;;;;;;;;;;;8.60;84.10;;;;;;5015713;28;86949;-66
2024/02/13 00:14:55;;;;;;;;;;;8.60;84.10;;;;;;5016051;28;87372;-67
2024/02/13 00:17:23;;;;;;;;;;;8.60;84.10;;;;;;5022863;28;86332;-66
2024/02/13 00:19:49;;;;;;;;;;;8.60;84.20;;;;;;5016320;28;87488;-67
2024/02/13 00:22:15;;;;;;;;;;;8.60;84.20;;;;;;5018985;28;86901;-66
2024/02/13 00:24:40;;;;;;;;;;;8.60;84.10;;;;;;5015333;28;87735;-67
2024/02/13 00:27:06;;;;;;;;;;;8.60;84.20;;;;;;5013490;28;87452;-67
2024/02/13 00:29:32;;;;;;;;;;;8.60;84.20;;;;;;5018935;28;87009;-67
2024/02/13 00:31:58;;;;;;;;;;;8.60;84.10;;;;;;5020568;28;86992;-67
2024/02/13 00:34:24;;;;;;;;;;;8.50;84.10;;;;;;5015831;28;86881;-67
2024/02/13 00:36:50;;;;;;;;;;;8.60;84.20;;;;;;5016873;28;86954;-66
2024/02/13 00:39:16;;;;;;;;;;;8.60;84.10;;;;;;5018210;28;86940;-67
2024/02/13 00:41:42;;;;;;;;;;;8.60;84.10;;;;;;5010522;28;86237;-66
2024/02/13 00:44:07;;;;;;;;;;;8.60;84.10;;;;;;5017596;28;86964;-67
2024/02/13 00:46:34;;;;;;;;;;;8.60;84.20;;;;;;5016502;28;87583;-67
2024/02/13 00:49:00;;;;;;;;;;;8.50;84.00;;;;;;5016698;28;88024;-67
2024/02/13 00:51:26;;;;;;;;;;;8.50;84.20;;;;;;5013441;28;89534;-66
2024/02/13 00:53:52;;;;;;;;;;;8.50;84.10;;;;;;5017782;28;87434;-67
2024/02/13 00:56:18;;;;;;;;;;;8.50;84.10;;;;;;5016126;28;87044;-66
2024/02/13 00:58:45;;;;;;;;;;;8.50;84.20;;;;;;5017814;28;86951;-66
2024/02/13 01:01:11;;;;;;;;;;;8.50;84.20;;;;;;5015317;28;87469;-65
2024/02/13 01:03:37;;;;;;;;;;;8.50;84.20;;;;;;5018053;28;86885;-65
2024/02/13 01:06:03;;;;;;;;;;;8.50;84.10;;;;;;5016100;28;86267;-65
2024/02/13 01:08:28;;;;;;;;;;;8.50;84.20;;;;;;5017449;28;86996;-65
2024/02/13 01:10:54;;;;;;;;;;;8.50;84.30;;;;;;5015721;28;86879;-65
2024/02/13 01:13:20;;;;;;;;;;;8.50;84.20;;;;;;5016672;28;87834;-65
2024/02/13 01:15:46;;;;;;;;;;;8.50;84.20;;;;;;5017521;28;87039;-64
2024/02/13 01:18:14;;;;;;;;;;;8.50;84.30;;;;;;5017738;28;87386;-65
2024/02/13 01:20:40;;;;;;;;;;;8.50;84.30;;;;;;5017905;28;90398;-65
2024/02/13 01:23:05;;;;;;;;;;;8.50;84.20;;;;;;5020172;28;86978;-65
2024/02/13 01:25:31;;;;;;;;;;;8.40;84.30;;;;;;5017473;28;87415;-65
2024/02/13 01:27:57;;;;;;;;;;;8.50;84.40;;;;;;5016963;28;87047;-65
2024/02/13 01:30:23;;;;;;;;;;;8.40;84.30;;;;;;5018283;28;86665;-64
2024/02/13 01:32:49;;;;;;;;;;;8.40;84.30;;;;;;5016130;28;87566;-65
2024/02/13 01:35:16;;;;;;;;;;;8.40;84.30;;;;;;5017943;28;86967;-65
2024/02/13 01:37:41;;;;;;;;;;;8.40;84.30;;;;;;5018412;28;87957;-65
2024/02/13 01:40:07;;;;;;;;;;;8.40;84.30;;;;;;5016545;28;87428;-65
2024/02/13 01:42:39;;;;;;;;;;;8.40;84.30;;;;;;5019163;28;87247;-65
2024/02/13 01:45:12;;;;;;;;;;;8.40;84.30;;;;;;5021471;28;86775;-65
2024/02/13 01:47:41;;;;;;;;;;;8.40;84.20;;;;;;5015683;28;86866;-65
2024/02/13 01:50:08;;;;;;;;;;;8.40;84.20;;;;;;5017997;28;87115;-65
2024/02/13 01:52:35;;;;;;;;;;;8.40;84.10;;;;;;5019778;28;87446;-65
2024/02/13 01:55:02;;;;;;;;;;;8.40;84.30;;;;;;5018624;28;86972;-65
2024/02/13 01:57:29;;;;;;;;;;;8.40;84.20;;;;;;5016287;28;87044;-65
2024/02/13 01:59:55;;;;;;;;;;;8.40;84.30;;;;;;5017210;28;87498;-65
2024/02/13 02:02:21;;;;;;;;;;;8.40;84.30;;;;;;5016030;28;87832;-65
2024/02/13 02:04:48;;;;;;;;;;;8.40;84.30;;;;;;5020021;28;87772;-65
2024/02/13 02:07:14;;;;;;;;;;;8.40;84.20;;;;;;5014758;28;87069;-66
2024/02/13 02:09:41;;;;;;;;;;;8.40;84.30;;;;;;5016698;28;86888;-65
2024/02/13 02:12:07;;;;;;;;;;;8.40;84.20;;;;;;5016405;28;88018;-65
2024/02/13 02:14:33;;;;;;;;;;;8.40;84.20;;;;;;5014888;28;86926;-65
2024/02/13 02:17:08;;;;;;;;;;;8.30;84.20;;;;;;5018911;28;86966;-65
2024/02/13 02:19:34;;;;;;;;;;;8.30;84.20;;;;;;5019114;28;86600;-65
2024/02/13 02:21:59;;;;;;;;;;;8.30;84.40;;;;;;5017966;28;87187;-65
2024/02/13 02:24:26;;;;;;;;;;;8.30;84.20;;;;;;5015519;28;86882;-65
2024/02/13 02:26:52;;;;;;;;;;;8.30;84.20;;;;;;5019967;28;88379;-65
2024/02/13 02:29:18;;;;;;;;;;;8.30;84.30;;;;;;5018546;28;87699;-65
2024/02/13 02:31:43;;;;;;;;;;;8.30;84.30;;;;;;5014225;28;87535;-65
2024/02/13 02:34:10;;;;;;;;;;;8.30;85.00;;;;;;5015262;28;87067;-65
2024/02/13 02:36:36;;;;;;;;;;;8.30;84.40;;;;;;5015320;28;87045;-65
2024/02/13 02:39:03;;;;;;;;;;;8.30;84.20;;;;;;5014752;28;87377;-65
2024/02/13 02:41:28;;;;;;;;;;;8.40;84.20;;;;;;5018059;28;87045;-66
2024/02/13 02:43:54;;;;;;;;;;;8.30;84.30;;;;;;5016477;28;86745;-65
2024/02/13 02:46:20;;;;;;;;;;;8.30;84.30;;;;;;5018083;28;87532;-65
2024/02/13 02:48:45;;;;;;;;;;;8.30;84.30;;;;;;5024284;28;87027;-64
2024/02/13 02:51:11;;;;;;;;;;;8.30;84.20;;;;;;5017440;28;88405;-65
2024/02/13 02:53:36;;;;;;;;;;;8.30;84.40;;;;;;5021471;28;87080;-65
2024/02/13 02:56:02;;;;;;;;;;;8.20;84.40;;;;;;5018373;28;86957;-65
2024/02/13 02:58:27;;;;;;;;;;;8.30;84.30;;;;;;5020923;28;87581;-65
2024/02/13 03:00:53;;;;;;;;;;;8.30;84.40;;;;;;5016624;28;87200;-65
2024/02/13 03:03:20;;;;;;;;;;;8.30;84.30;;;;;;5017782;28;86859;-65
2024/02/13 03:05:46;;;;;;;;;;;8.30;84.20;;;;;;5020967;28;87250;-65
2024/02/13 03:08:12;;;;;;;;;;;8.30;84.30;;;;;;5018472;28;86384;-65
2024/02/13 03:10:38;;;;;;;;;;;8.20;84.30;;;;;;5020160;28;86825;-65
2024/02/13 03:13:03;;;;;;;;;;;8.30;84.30;;;;;;5021139;28;87045;-65
2024/02/13 03:15:29;;;;;;;;;;;8.20;84.20;;;;;;5017178;28;87913;-65
2024/02/13 03:17:54;;;;;;;;;;;8.20;84.20;;;;;;5020541;28;87378;-65
2024/02/13 03:20:20;;;;;;;;;;;8.20;84.40;;;;;;5017874;28;86943;-65
2024/02/13 03:22:46;;;;;;;;;;;8.20;84.40;;;;;;5017441;28;87707;-65
2024/02/13 03:25:11;;;;;;;;;;;8.20;84.30;;;;;;5017589;28;87279;-65
2024/02/13 03:27:37;;;;;;;;;;;8.20;84.30;;;;;;5013927;28;87046;-65
2024/02/13 03:30:03;;;;;;;;;;;8.20;84.30;;;;;;5017422;28;86915;-65
2024/02/13 03:32:29;;;;;;;;;;;8.20;84.30;;;;;;5023581;28;88111;-65
2024/02/13 03:34:54;;;;;;;;;;;8.20;84.20;;;;;;5018810;28;86742;-65
2024/02/13 03:37:20;;;;;;;;;;;8.20;84.30;;;;;;5013264;28;87344;-66
2024/02/13 03:39:45;;;;;;;;;;;8.20;84.30;;;;;;5019906;28;88021;-65
2024/02/13 03:42:11;;;;;;;;;;;8.20;84.40;;;;;;5019563;28;89098;-65
2024/02/13 03:44:37;;;;;;;;;;;8.20;84.40;;;;;;5020767;28;87608;-65
2024/02/13 03:47:05;;;;;;;;;;;8.20;84.50;;;;;;5017531;28;87106;-65
2024/02/13 03:49:31;;;;;;;;;;;8.20;84.40;;;;;;5014714;28;87071;-65
2024/02/13 03:51:57;;;;;;;;;;;8.10;84.40;;;;;;5016080;28;87448;-65
2024/02/13 03:54:23;;;;;;;;;;;8.10;84.40;;;;;;5018888;28;87178;-65
2024/02/13 03:56:48;;;;;;;;;;;8.10;84.50;;;;;;5016778;28;86289;-65
2024/02/13 03:59:15;;;;;;;;;;;8.10;84.60;;;;;;5014843;28;87083;-65
2024/02/13 04:01:42;;;;;;;;;;;8.10;84.50;;;;;;5014285;28;88434;-65
2024/02/13 04:04:08;;;;;;;;;;;8.10;84.50;;;;;;5015223;28;88281;-65
2024/02/13 04:06:35;;;;;;;;;;;8.10;84.50;;;;;;5020237;28;86985;-65
2024/02/13 04:09:03;;;;;;;;;;;8.10;84.50;;;;;;5013394;28;86886;-65
2024/02/13 04:11:30;;;;;;;;;;;8.10;84.50;;;;;;5013522;28;87443;-65
2024/02/13 04:13:56;;;;;;;;;;;8.10;84.40;;;;;;5016433;28;86863;-65
2024/02/13 04:16:22;;;;;;;;;;;8.10;84.50;;;;;;5013017;28;87392;-65
2024/02/13 04:18:48;;;;;;;;;;;8.10;84.50;;;;;;5015965;28;86987;-65
2024/02/13 04:21:17;;;;;;;;;;;8.00;84.50;;;;;;5016831;28;86258;-65
2024/02/13 04:23:46;;;;;;;;;;;8.10;84.40;;;;;;5018871;28;87324;-65
2024/02/13 04:26:11;;;;;;;;;;;8.10;84.40;;;;;;5020502;28;87061;-65
2024/02/13 04:28:39;;;;;;;;;;;8.00;84.50;;;;;;5017593;28;87752;-65
2024/02/13 04:31:05;;;;;;;;;;;8.00;84.50;;;;;;5018004;28;87389;-65
2024/02/13 04:33:31;;;;;;;;;;;8.00;84.60;;;;;;5018515;28;86955;-65
2024/02/13 04:35:57;;;;;;;;;;;8.10;84.50;;;;;;5020663;28;86951;-65
2024/02/13 04:38:23;;;;;;;;;;;8.10;84.40;;;;;;5018307;28;86867;-65
2024/02/13 04:40:49;;;;;;;;;;;8.10;84.40;;;;;;5012544;28;87036;-65
2024/02/13 04:43:14;;;;;;;;;;;8.10;84.30;;;;;;5014597;28;87309;-65
2024/02/13 04:45:40;;;;;;;;;;;8.00;84.40;;;;;;5018560;28;86274;-65
2024/02/13 04:48:07;;;;;;;;;;;8.00;84.40;;;;;;5016265;28;86881;-65
2024/02/13 04:50:33;;;;;;;;;;;8.00;84.40;;;;;;5017638;28;87032;-65
2024/02/13 04:52:58;;;;;;;;;;;8.10;84.40;;;;;;5016928;28;87918;-65
2024/02/13 04:55:24;;;;;;;;;;;8.00;84.40;;;;;;5020201;28;88116;-65
2024/02/13 04:57:51;;;;;;;;;;;8.00;84.50;;;;;;5017781;28;86988;-66
2024/02/13 05:00:28;;;;;;;;;;;8.00;84.40;;;;;;5013067;28;86895;-65
2024/02/13 05:03:16;;;;;;;;;;;8.00;84.40;;;;;;5011181;28;87437;-65
2024/02/13 05:08:29;;;;;;;;;;;8.00;84.30;;;;;;5015253;28;86896;-65
2024/02/13 05:10:56;;;;;;;;;;;8.00;84.40;;;;;;5017081;28;86775;-65
2024/02/13 05:13:22;;;;;;;;;;;8.00;84.40;;;;;;5012521;28;87114;-65
2024/02/13 05:15:47;;;;;;;;;;;8.00;84.40;;;;;;5013892;28;87445;-65
2024/02/13 05:18:13;;;;;;;;;;;8.00;84.40;;;;;;5016879;28;88455;-65
2024/02/13 05:20:39;;;;;;;;;;;8.00;84.30;;;;;;5018529;28;86957;-65
2024/02/13 05:23:06;;;;;;;;;;;8.00;84.40;;;;;;5013235;28;87521;-65
2024/02/13 05:25:32;;;;;;;;;;;8.00;84.40;;;;;;5013264;28;87209;-65
2024/02/13 05:27:59;;;;;;;;;;;8.00;84.40;;;;;;5016770;28;87222;-65
2024/02/13 05:30:25;;;;;;;;;;;8.00;84.30;;;;;;5011306;28;87648;-65
2024/02/13 05:32:51;;;;;;;;;;;8.00;84.40;;;;;;5018879;28;87028;-65
2024/02/13 05:35:17;;;;;;;;;;;7.90;84.60;;;;;;5014582;28;86158;-65
2024/02/13 05:37:42;;;;;;;;;;;8.00;84.40;;;;;;5014626;28;87504;-66
2024/02/13 05:40:11;;;;;;;;;;;7.90;84.40;;;;;;5017742;28;86999;-65
2024/02/13 05:42:36;;;;;;;;;;;7.90;84.40;;;;;;5012301;28;88011;-65
2024/02/13 05:45:03;;;;;;;;;;;8.00;84.50;;;;;;5015226;28;87132;-65
2024/02/13 05:47:34;;;;;;;;;;;7.90;84.40;;;;;;5016292;28;88495;-65
2024/02/13 05:50:02;;;;;;;;;;;7.90;84.30;;;;;;5014976;28;87498;-66
2024/02/13 05:52:27;;;;;;;;;;;8.00;84.60;;;;;;5015214;28;86955;-65
2024/02/13 05:54:53;;;;;;;;;;;7.90;84.40;;;;;;5011584;28;86885;-66
2024/02/13 05:57:19;;;;;;;;;;;7.90;84.40;;;;;;5009047;28;87380;-65
2024/02/13 05:59:45;;;;;;;;;;;7.90;84.50;;;;;;5014742;28;86388;-66
2024/02/13 06:02:10;;;;;;;;;;;7.90;84.50;;;;;;5015167;28;86899;-65
2024/02/13 06:04:36;;;;;;;;;;;7.90;84.60;;;;;;5017490;28;88197;-66
2024/02/13 06:07:02;;;;;;;;;;;7.90;84.40;;;;;;5010733;28;87994;-65
2024/02/13 06:09:28;;;;;;;;;;;7.90;84.50;;;;;;5013501;28;87349;-66
2024/02/13 06:11:54;;;;;;;;;;;7.90;84.60;;;;;;5015141;28;86947;-65
2024/02/13 06:14:19;;;;;;;;;;;7.90;84.40;;;;;;5014752;28;86768;-65
2024/02/13 06:16:45;;;;;;;;;;;7.90;84.40;;;;;;5014548;28;87471;-66
2024/02/13 06:19:11;;;;;;;;;;;7.90;84.40;;;;;;5015030;28;87063;-66
2024/02/13 06:21:36;;;;;;;;;;;7.90;84.40;;;;;;5014819;28;86799;-65
2024/02/13 06:24:02;;;;;;;;;;;7.90;84.30;;;;;;5017878;28;86244;-65
2024/02/13 06:26:28;;;;;;;;;;;7.90;84.40;;;;;;5011606;28;86891;-66
2024/02/13 06:28:54;;;;;;;;;;;7.90;84.40;;;;;;5014306;28;87706;-66
2024/02/13 06:31:20;;;;;;;;;;;7.90;84.40;;;;;;5011973;28;87841;-66
2024/02/13 06:33:46;;;;;;;;;;;7.90;84.50;;;;;;5018532;28;86859;-66
2024/02/13 06:36:11;;;;;;;;;;;7.90;84.40;;;;;;5014329;28;87353;-66
2024/02/13 06:38:37;;;;;;;;;;;7.90;84.50;;;;;;5018679;28;86985;-66
2024/02/13 06:41:05;;;;;;;;;;;7.90;84.50;;;;;;5013299;28;86769;-66
2024/02/13 06:43:34;;;;;;;;;;;7.80;84.40;;;;;;5010622;28;87450;-66
2024/02/13 06:46:00;;;;;;;;;;;7.80;84.50;;;;;;5021331;28;87031;-66
2024/02/13 06:48:26;;;;;;;;;;;7.80;84.40;;;;;;5014114;28;86735;-65
2024/02/13 06:50:51;;;;;;;;;;;7.80;84.40;;;;;;5014979;28;86926;-66
2024/02/13 06:53:17;;;;;;;;;;;7.80;84.40;;;;;;5014115;28;86987;-66
2024/02/13 06:55:42;;;;;;;;;;;7.80;84.60;;;;;;5014929;28;88454;-66
2024/02/13 06:58:08;;;;;;;;;;;7.80;84.50;;;;;;5011573;28;87003;-66
2024/02/13 07:00:34;;;;;;;;;;;7.80;84.60;;;;;;5012039;28;87033;-66
2024/02/13 07:02:59;;;;;;;;;;;7.80;84.60;;;;;;5013952;28;87396;-65
2024/02/13 07:05:26;;;;;;;;;;;7.80;84.50;;;;;;5014401;28;86864;-66
2024/02/13 07:07:51;;;;;;;;;;;7.80;84.40;;;;;;5019868;28;87003;-65
2024/02/13 07:10:17;;;;;;;;;;;7.80;84.60;;;;;;5014957;28;87030;-65
2024/02/13 07:12:43;;;;;;;;;;;7.80;84.50;;;;;;5017864;28;86437;-66
2024/02/13 07:15:09;;;;;;;;;;;7.80;84.60;;;;;;5013935;28;87510;-65
2024/02/13 07:17:34;;;;;;;;;;;7.80;84.50;;;;;;5014735;28;86969;-65
2024/02/13 07:20:00;;;;;;;;;;;7.80;84.50;;;;;;5016764;28;87940;-65
2024/02/13 07:22:26;;;;;;;;;;;7.80;84.40;;;;;;5013728;28;87601;-66
2024/02/13 07:24:52;;;;;;;;;;;7.80;84.40;;;;;;5010354;28;86921;-65
2024/02/13 07:27:17;;;;;;;;;;;7.80;84.50;;;;;;5018600;28;87039;-65
2024/02/13 07:29:43;;;;;;;;;;;7.70;84.30;;;;;;5021018;28;87520;-65
2024/02/13 07:32:10;;;;;;;;;;;7.70;84.30;;;;;;5015928;28;87029;-65
2024/02/13 07:34:38;;;;;;;;;;;7.80;84.40;;;;;;5013312;28;88307;-65
2024/02/13 07:37:07;;;;;;;;;;;7.80;84.50;;;;;;5020266;28;86224;-66
2024/02/13 07:39:33;;;;;;;;;;;7.70;84.70;;;;;;5016688;28;87095;-65
2024/02/13 07:41:59;;;;;;;;;;;7.80;84.60;;;;;;5018231;28;87481;-65
2024/02/13 07:44:27;;;;;;;;;;;7.80;84.50;;;;;;5016505;28;88139;-65
2024/02/13 07:46:57;;;;;;;;;;;7.70;84.50;;;;;;5019068;28;86898;-65
2024/02/13 07:49:23;;;;;;;;;;;7.80;84.50;;;;;;5016337;28;87453;-65
2024/02/13 07:51:51;;;;;;;;;;;7.70;84.50;;;;;;5022623;28;87083;-65
2024/02/13 07:54:17;;;;;;;;;;;7.80;84.40;;;;;;5017749;28;87477;-65
2024/02/13 07:56:42;;;;;;;;;;;7.70;84.50;;;;;;5019665;28;87412;-65
2024/02/13 07:59:09;;;;;;;;;;;7.70;84.50;;;;;;5015434;28;87076;-65
2024/02/13 08:01:34;;;;;;;;;;;7.70;84.60;;;;;;5016811;28;86555;-65
2024/02/13 08:04:00;;;;;;;;;;;7.70;84.40;;;;;;5019832;28;87064;-65
2024/02/13 08:06:26;;;;;;;;;;;7.70;84.30;;;;;;5016983;28;86965;-65
2024/02/13 08:08:52;;;;;;;;;;;7.70;84.50;;;;;;5013641;28;88685;-65
2024/02/13 08:11:17;;;;;;;;;;;7.70;84.70;;;;;;5021773;28;87027;-65
2024/02/13 08:13:43;;;;;;;;;;;7.70;84.50;;;;;;5022227;28;86984;-65
2024/02/13 08:16:11;;;;;;;;;;;7.70;84.50;;;;;;5019378;28;86966;-65
2024/02/13 08:18:37;;;;;;;;;;;7.70;84.60;;;;;;5016337;28;86933;-65
2024/02/13 08:21:02;;;;;;;;;;;7.70;84.70;;;;;;5017072;28;87452;-65
2024/02/13 08:23:29;;;;;;;;;;;7.70;84.60;;;;;;5019909;28;86949;-65
2024/02/13 08:25:55;;;;;;;;;;;7.70;84.60;;;;;;5017614;28;86278;-65
2024/02/13 08:28:20;;;;;;;;;;;7.70;84.90;;;;;;5019490;28;87555;-65
2024/02/13 08:30:49;;;;;;;;;;;7.60;84.60;;;;;;5015556;28;87068;-66
2024/02/13 08:33:15;;;;;;;;;;;7.70;84.40;;;;;;5021831;28;87769;-67
2024/02/13 08:35:42;;;;;;;;;;;7.70;84.80;;;;;;5016511;28;87062;-66
2024/02/13 08:38:10;;;;;;;;;;;7.70;84.70;;;;;;5020015;28;87055;-66
2024/02/13 08:40:36;;;;;;;;;;;7.70;84.90;;;;;;5013722;28;90203;-66
2024/02/13 08:43:01;;;;;;;;;;;7.60;84.70;;;;;;5020155;28;86893;-67
2024/02/13 08:45:27;;;;;;;;;;;7.70;84.60;;;;;;5020318;28;87025;-66
2024/02/13 08:47:54;;;;;;;;;;;7.60;84.80;;;;;;5019826;28;87271;-66
2024/02/13 08:50:20;;;;;;;;;;;7.60;84.70;;;;;;5016624;28;86220;-66
2024/02/13 08:52:46;;;;;;;;;;;7.70;85.00;;;;;;5016172;28;86648;-66
2024/02/13 08:55:13;;;;;;;;;;;7.60;84.70;;;;;;5019040;28;87008;-66
2024/02/13 08:57:39;;;;;;;;;;;7.60;84.90;;;;;;5018913;28;87846;-66
2024/02/13 09:00:05;;;;;;;;;;;7.60;84.90;;;;;;5015995;28;87549;-66
2024/02/13 09:02:32;;;;;;;;;;;7.60;84.70;;;;;;5017914;28;86956;-65
2024/02/13 09:04:58;;;;;;;;;;;7.70;84.60;;;;;;5016613;28;87248;-66
2024/02/13 09:07:24;;;;;;;;;;;7.60;85.40;;;;;;5018868;28;87319;-65
2024/02/13 09:09:49;;;;;;;;;;;7.60;84.80;;;;;;5012154;28;86994;-65
2024/02/13 09:12:15;;;;;;;;;;;7.70;84.70;;;;;;5019039;28;87251;-65
2024/02/13 09:14:41;;;;;;;;;;;7.60;84.80;;;;;;5019989;28;86688;-65
2024/02/13 09:17:08;;;;;;;;;;;7.60;84.80;;;;;;5019492;28;86946;-65
2024/02/13 09:19:33;;;;;;;;;;;7.60;84.90;;;;;;5018460;28;86691;-65
2024/02/13 09:21:59;;;;;;;;;;;7.60;84.80;;;;;;5015967;28;88005;-65
2024/02/13 09:24:27;;;;;;;;;;;7.60;84.80;;;;;;5022497;28;87651;-65
2024/02/13 09:26:53;;;;;;;;;;;7.70;85.40;;;;;;5019107;28;87374;-65
2024/02/13 09:29:19;;;;;;;;;;;7.60;85.00;;;;;;5016993;28;87021;-66
2024/02/13 09:31:44;;;;;;;;;;;7.60;85.00;;;;;;5018220;28;86883;-66
2024/02/13 09:34:12;;;;;;;;;;;7.60;84.80;;;;;;5016274;28;87477;-66
2024/02/13 09:36:38;;;;;;;;;;;7.60;84.90;;;;;;5015830;28;87056;-65
2024/02/13 09:39:04;;;;;;;;;;;7.70;84.70;;;;;;5015754;28;86832;-66
2024/02/13 09:41:29;;;;;;;;;;;7.60;84.80;;;;;;5017575;28;87027;-66
2024/02/13 09:43:57;;;;;;;;;;;7.60;84.80;;;;;;5016685;28;86966;-65
2024/02/13 09:46:24;;;;;;;;;;;7.60;84.80;;;;;;5016198;28;87918;-65
2024/02/13 09:48:53;;;;;;;;;;;7.60;84.90;;;;;;5017069;28;86975;-65
2024/02/13 09:51:19;;;;;;;;;;;7.60;84.90;;;;;;5018327;28;87081;-65
2024/02/13 09:53:48;;;;;;;;;;;7.60;85.00;;;;;;5014403;28;87532;-65
2024/02/13 09:56:16;;;;;;;;;;;7.60;85.00;;;;;;5015625;28;86980;-65
2024/02/13 09:58:44;;;;;;;;;;;7.60;85.00;;;;;;5015515;28;86866;-65
2024/02/13 10:01:09;;;;;;;;;;;7.60;85.00;;;;;;5020905;28;87403;-65
2024/02/13 10:03:38;;;;;;;;;;;7.60;85.00;;;;;;5016324;28;86663;-65
2024/02/13 10:06:04;;;;;;;;;;;7.60;85.00;;;;;;5018829;28;87379;-65
2024/02/13 10:08:30;;;;;;;;;;;7.60;85.10;;;;;;5018739;28;86992;-65
2024/02/13 10:11:00;;;;;;;;;;;7.60;85.30;;;;;;5014296;28;87795;-66
2024/02/13 10:13:38;;;;;;;;;;;7.60;85.10;;;;;;5014874;28;87395;-66
2024/02/13 10:16:04;;;;;;;;;;;7.50;85.20;;;;;;5016610;28;86893;-66
2024/02/13 10:18:29;;;;;;;;;;;7.60;85.10;;;;;;5016827;28;86849;-65
2024/02/13 10:20:55;;;;;;;;;;;7.60;85.10;;;;;;5017872;28;87065;-65
2024/02/13 10:23:24;;;;;;;;;;;7.60;85.10;;;;;;5021905;28;86937;-65
2024/02/13 10:25:50;;;;;;;;;;;7.60;85.00;;;;;;5010327;28;87971;-65
2024/02/13 10:28:16;;;;;;;;;;;7.60;85.10;;;;;;5013566;28;86217;-65
2024/02/13 10:30:48;;;;;;;;;;;7.60;85.10;;;;;;5017441;28;87173;-65
2024/02/13 10:33:15;;;;;;;;;;;7.60;85.20;;;;;;5014910;28;87511;-65
2024/02/13 10:35:40;;;;;;;;;;;7.50;85.20;;;;;;5017676;28;87968;-65
2024/02/13 10:38:07;;;;;;;;;;;7.50;85.00;;;;;;5011119;28;87428;-65
2024/02/13 10:40:35;;;;;;;;;;;7.60;85.10;;;;;;5014179;28;87449;-66
2024/02/13 10:43:03;;;;;;;;;;;7.60;84.80;;;;;;5015312;28;86912;-65
2024/02/13 10:45:30;;;;;;;;;;;7.60;84.80;;;;;;5011325;28;87477;-65
2024/02/13 10:48:20;;;;;;;;;;;7.50;85.00;;;;;;5012033;28;86955;-65
2024/02/13 10:50:46;;;;;;;;;;;7.60;85.00;;;;;;5003569;28;87170;-65
2024/02/13 10:53:12;;;;;;;;;;;7.50;84.90;;;;;;5009934;28;86749;-66
2024/02/13 10:55:40;;;;;;;;;;;7.60;84.90;;;;;;5015528;28;87108;-66
2024/02/13 10:58:06;;;;;;;;;;;7.60;84.90;;;;;;5014363;28;87026;-65
2024/02/13 11:00:33;;;;;;;;;;;7.50;84.90;;;;;;5011476;28;88457;-66
2024/02/13 11:02:59;;;;;;;;;;;7.50;84.90;;;;;;5013347;28;86987;-65
2024/02/13 11:05:26;;;;;;;;;;;7.50;84.90;;;;;;5022764;28;86845;-66
2024/02/13 11:07:52;;;;;;;;;;;7.50;84.90;;;;;;5018317;28;87004;-66
2024/02/13 11:10:18;;;;;;;;;;;7.60;85.20;;;;;;5021054;28;87052;-66
2024/02/13 11:12:45;;;;;;;;;;;7.50;85.00;;;;;;5015934;28;87304;-66
2024/02/13 11:15:17;;;;;;;;;;;7.50;85.00;;;;;;5019266;28;87478;-66
2024/02/13 11:17:54;;;;;;;;;;;7.50;84.90;;;;;;5019906;28;86636;-66
2024/02/13 11:20:24;;;;;;;;;;;7.60;85.10;;;;;;5017766;28;87548;-65
2024/02/13 11:22:51;;;;;;;;;;;7.50;84.90;;;;;;5021176;28;86819;-66
2024/02/13 11:25:16;;;;;;;;;;;7.50;85.30;;;;;;5016080;28;87999;-66
2024/02/13 11:27:44;;;;;;;;;;;7.50;84.90;;;;;;5015853;28;87414;-66
2024/02/13 11:30:20;;;;;;;;;;;7.60;85.10;;;;;;5017366;28;86936;-66
2024/02/13 11:32:46;;;;;;;;;;;7.50;85.00;;;;;;5017175;28;87718;-66
2024/02/13 11:35:16;;;;;;;;;;;7.60;85.10;;;;;;5019224;28;86968;-66
2024/02/13 11:37:41;;;;;;;;;;;7.50;85.00;;;;;;5017259;28;86911;-66
2024/02/13 11:40:08;;;;;;;;;;;7.50;84.70;;;;;;5015951;28;87378;-66
2024/02/13 11:42:34;;;;;;;;;;;7.50;85.10;;;;;;5019749;28;86310;-65
2024/02/13 11:45:03;;;;;;;;;;;7.50;85.00;;;;;;5017088;28;86942;-66
2024/02/13 11:47:29;;;;;;;;;;;7.50;85.20;;;;;;5017574;28;87501;-65
2024/02/13 11:49:55;;;;;;;;;;;7.50;85.50;;;;;;5021770;28;87935;-65
2024/02/13 11:52:21;;;;;;;;;;;7.50;85.10;;;;;;5017873;28;87255;-65
2024/02/13 11:54:48;;;;;;;;;;;7.50;85.20;;;;;;5021417;28;87012;-65
2024/02/13 11:57:14;;;;;;;;;;;7.50;85.30;;;;;;5019719;28;87028;-66
2024/02/13 11:59:40;;;;;;;;;;;7.50;85.30;;;;;;5017321;28;87479;-65
2024/02/13 12:02:15;;;;;;;;;;;7.50;85.00;;;;;;5019995;28;87029;-65
2024/02/13 12:04:41;;;;;;;;;;;7.50;85.10;;;;;;5017124;28;87507;-65
2024/02/13 12:07:11;;;;;;;;;;;7.50;85.00;;;;;;5014428;28;86888;-65
2024/02/13 12:09:37;;;;;;;;;;;7.50;85.30;;;;;;5016182;28;87048;-65
2024/02/13 12:12:04;;;;;;;;;;;7.50;85.10;;;;;;5017964;28;89432;-65
2024/02/13 12:14:30;;;;;;;;;;;7.50;85.20;;;;;;5017325;28;87886;-66
2024/02/13 12:17:07;;;;;;;;;;;7.50;85.10;;;;;;5017648;28;88161;-65
2024/02/13 12:19:36;;;;;;;;;;;7.50;85.20;;;;;;5019441;28;87466;-67
2024/02/13 12:22:06;;;;;;;;;;;7.50;85.20;;;;;;5017101;28;87013;-66
2024/02/13 12:24:32;;;;;;;;;;;7.50;85.20;;;;;;5020429;28;86863;-66
2024/02/13 12:26:58;;;;;;;;;;;7.50;85.10;;;;;;5016206;28;87462;-65
2024/02/13 12:29:24;;;;;;;;;;;7.50;85.10;;;;;;5020389;28;86997;-66
2024/02/13 12:31:50;;;;;;;;;;;7.50;85.10;;;;;;5017212;28;86622;-66
2024/02/13 12:34:16;;;;;;;;;;;7.50;85.30;;;;;;5013564;28;87023;-66
2024/02/13 12:36:42;;;;;;;;;;;7.50;85.20;;;;;;5015445;28;86804;-66
2024/02/13 12:39:16;;;;;;;;;;;7.50;85.10;;;;;;5009890;28;89590;-66
2024/02/13 12:41:51;;;;;;;;;;;7.50;85.30;;;;;;5011865;28;87103;-66
2024/02/13 12:44:18;;;;;;;;;;;7.50;85.20;;;;;;5018054;28;86853;-66
2024/02/13 12:46:45;;;;;;;;;;;7.40;85.20;;;;;;5018380;28;87530;-66
2024/02/13 12:49:12;;;;;;;;;;;7.50;85.30;;;;;;5013406;28;87893;-66
2024/02/13 12:51:39;;;;;;;;;;;7.50;85.30;;;;;;5015098;28;86905;-66
2024/02/13 12:54:06;;;;;;;;;;;7.50;85.20;;;;;;5017940;28;87063;-66
2024/02/13 12:56:33;;;;;;;;;;;7.50;85.30;;;;;;5020302;28;86753;-66
2024/02/13 12:59:01;;;;;;;;;;;7.50;85.50;;;;;;5014713;28;87230;-66
2024/02/13 13:01:27;;;;;;;;;;;7.50;85.30;;;;;;5018537;28;86737;-66
2024/02/13 13:03:53;;;;;;;;;;;7.50;85.20;;;;;;5014562;28;89314;-65
2024/02/13 13:06:19;;;;;;;;;;;7.50;85.30;;;;;;5015579;28;87330;-65
2024/02/13 13:08:47;;;;;;;;;;;7.50;85.30;;;;;;5011675;28;87070;-66
2024/02/13 13:11:13;;;;;;;;;;;7.50;85.50;;;;;;5019641;28;86934;-66
2024/02/13 13:13:40;;;;;;;;;;;7.40;85.20;;;;;;5008846;28;87472;-66
2024/02/13 13:16:07;;;;;;;;;;;7.40;85.10;;;;;;5016023;28;86857;-66
2024/02/13 13:18:38;;;;;;;;;;;7.40;85.20;;;;;;5011690;28;87461;-65
2024/02/13 13:21:04;;;;;;;;;;;7.50;85.20;;;;;;5015259;28;86439;-66
2024/02/13 13:23:30;;;;;;;;;;;7.50;85.50;;;;;;5016890;28;87421;-66
2024/02/13 13:25:55;;;;;;;;;;;7.40;85.30;;;;;;5012659;28;87296;-66
2024/02/13 13:28:22;;;;;;;;;;;7.50;85.40;;;;;;5015589;28;88095;-66
2024/02/13 13:30:53;;;;;;;;;;;7.40;85.20;;;;;;5014177;28;87697;-66
2024/02/13 13:33:20;;;;;;;;;;;7.40;85.30;;;;;;5019239;28;87111;-66
2024/02/13 13:35:46;;;;;;;;;;;7.40;85.30;;;;;;5016243;28;86927;-66
2024/02/13 13:38:17;;;;;;;;;;;7.40;85.60;;;;;;5019663;28;87095;-66
2024/02/13 13:40:49;;;;;;;;;;;7.40;85.40;;;;;;5015027;28;87016;-66
2024/02/13 13:43:15;;;;;;;;;;;7.40;85.40;;;;;;5019585;28;87163;-66
2024/02/13 13:45:50;;;;;;;;;;;7.40;85.40;;;;;;5015598;28;86672;-66
2024/02/13 13:48:16;;;;;;;;;;;7.40;85.30;;;;;;5016492;28;86899;-66
2024/02/13 13:50:43;;;;;;;;;;;7.40;85.30;;;;;;5014451;28;86991;-66
2024/02/13 13:53:09;;;;;;;;;;;7.40;85.30;;;;;;5014114;28;88467;-66
2024/02/13 13:55:35;;;;;;;;;;;7.40;85.30;;;;;;5011717;28;87019;-66
2024/02/13 13:58:01;;;;;;;;;;;7.40;85.30;;;;;;5013987;28;86926;-66
2024/02/13 14:00:29;;;;;;;;;;;7.40;85.40;;;;;;5020062;28;87527;-66
2024/02/13 14:02:55;;;;;;;;;;;7.40;85.40;;;;;;5016532;28;86871;-66
2024/02/13 14:05:23;;;;;;;;;;;7.40;85.40;;;;;;5016688;28;87809;-66
2024/02/13 14:07:49;;;;;;;;;;;7.40;85.40;;;;;;5013033;28;86908;-67
2024/02/13 14:10:16;;;;;;;;;;;7.40;85.30;;;;;;5019334;28;86708;-66
2024/02/13 14:12:43;;;;;;;;;;;7.40;85.40;;;;;;5016182;28;87360;-66
2024/02/13 14:15:09;;;;;;;;;;;7.40;85.40;;;;;;5015151;28;86998;-67
2024/02/13 14:17:34;;;;;;;;;;;7.40;85.50;;;;;;5013398;28;87883;-67
2024/02/13 14:20:00;;;;;;;;;;;7.40;85.60;;;;;;5016984;28;87481;-66
2024/02/13 14:22:26;;;;;;;;;;;7.40;85.30;;;;;;5019213;28;86974;-67
2024/02/13 14:24:52;;;;;;;;;;;7.40;85.60;;;;;;5012207;28;86856;-66
2024/02/13 14:27:18;;;;;;;;;;;7.40;85.40;;;;;;5014575;28;87019;-67
2024/02/13 14:29:44;;;;;;;;;;;7.40;85.40;;;;;;5014755;28;87076;-66